Time;durP1;ratioP1;P1;durP2;ratioP2;P2;SDS_P1;SDS_P2;PMS_P1;PMS_P2;Temp;Humidity;BMP_temperature;BMP_pressure;BME280_temperature;BME280_humidity;BME280_pressure;Samples;Min_cycle;Max_cycle;Signal;HPM_P1;HPM_P2
2022/06/17 00:00:57;;;;;;;5.27;5.07;;;;;;;;;;4937571;29;20444;-67
2022/06/17 00:03:25;;;;;;;4.97;4.77;;;;;;;;;;4937440;29;20958;-71
2022/06/17 00:05:51;;;;;;;4.83;4.33;;;;;;;;;;4937357;29;20865;-66
2022/06/17 00:08:19;;;;;;;5.70;3.47;;;;;;;;;;4937069;29;20926;-63
2022/06/17 00:10:45;;;;;;;4.53;4.20;;;;;;;;;;4937341;29;20400;-69
2022/06/17 00:13:12;;;;;;;4.80;3.70;;;;;;;;;;4937384;29;20411;-66
2022/06/17 00:15:38;;;;;;;6.27;3.20;;;;;;;;;;4937161;29;20456;-63
2022/06/17 00:18:04;;;;;;;4.00;3.37;;;;;;;;;;4937223;29;20421;-66
2022/06/17 00:20:33;;;;;;;3.37;3.10;;;;;;;;;;4936945;29;20482;-68
2022/06/17 00:22:59;;;;;;;5.57;3.20;;;;;;;;;;4936938;29;20398;-68
2022/06/17 00:25:33;;;;;;;8.50;3.40;;;;;;;;;;4936930;29;20828;-68
2022/06/17 00:27:59;;;;;;;2.77;2.57;;;;;;;;;;4936912;29;20785;-70
2022/06/17 00:30:27;;;;;;;3.63;3.30;;;;;;;;;;4936890;29;20495;-70
2022/06/17 00:32:54;;;;;;;3.47;3.20;;;;;;;;;;4936287;29;20476;-70
2022/06/17 00:35:20;;;;;;;9.77;3.30;;;;;;;;;;4936658;29;20892;-63
2022/06/17 00:37:46;;;;;;;3.10;2.80;;;;;;;;;;4936718;29;20736;-65
2022/06/17 00:40:15;;;;;;;2.50;2.40;;;;;;;;;;4936835;29;20481;-66
2022/06/17 00:42:42;;;;;;;3.73;2.73;;;;;;;;;;4936668;29;20417;-63
2022/06/17 00:45:27;;;;;;;2.50;2.50;;;;;;;;;;4936457;29;20472;-63
2022/06/17 00:48:06;;;;;;;3.20;3.00;;;;;;;;;;4936662;29;20783;-64
2022/06/17 00:50:43;;;;;;;5.77;2.90;;;;;;;;;;4936572;29;20830;-70
2022/06/17 00:53:16;;;;;;;8.07;2.80;;;;;;;;;;4936642;29;20943;-68
2022/06/17 00:56:01;;;;;;;6.00;3.00;;;;;;;;;;4936543;29;20408;-63
2022/06/17 00:58:32;;;;;;;4.53;3.10;;;;;;;;;;4936724;29;20502;-64
2022/06/17 01:01:03;;;;;;;2.93;2.73;;;;;;;;;;4936379;29;21001;-64
2022/06/17 01:03:34;;;;;;;2.80;2.57;;;;;;;;;;4936380;29;20482;-63
2022/06/17 01:06:11;;;;;;;3.00;2.67;;;;;;;;;;4936609;29;20420;-63
2022/06/17 01:11:26;;;;;;;2.87;2.77;;;;;;;;;;4936664;29;20540;-63
2022/06/17 01:13:52;;;;;;;2.63;2.43;;;;;;;;;;4936369;29;20413;-63
2022/06/17 01:16:21;;;;;;;2.53;2.50;;;;;;;;;;4936572;29;20425;-65
2022/06/17 01:18:48;;;;;;;3.03;2.73;;;;;;;;;;4936316;29;20460;-67
2022/06/17 01:21:30;;;;;;;2.73;2.53;;;;;;;;;;4936303;29;20445;-68
2022/06/17 01:23:56;;;;;;;2.63;2.63;;;;;;;;;;4936300;29;20470;-65
2022/06/17 01:26:22;;;;;;;2.70;2.43;;;;;;;;;;4936229;29;20407;-64
2022/06/17 01:28:48;;;;;;;2.93;2.73;;;;;;;;;;4936430;29;20416;-65
2022/06/17 01:31:15;;;;;;;3.90;2.77;;;;;;;;;;4936095;29;20536;-67
2022/06/17 01:33:41;;;;;;;3.27;3.07;;;;;;;;;;4936185;29;20878;-75
2022/06/17 01:36:12;;;;;;;3.00;2.73;;;;;;;;;;4936287;29;20406;-76
2022/06/17 01:38:39;;;;;;;3.03;2.83;;;;;;;;;;4936224;29;20445;-75
2022/06/17 01:41:05;;;;;;;2.93;2.80;;;;;;;;;;4936142;29;20894;-76
2022/06/17 01:43:51;;;;;;;2.37;2.30;;;;;;;;;;4936312;29;20466;-74
2022/06/17 01:46:20;;;;;;;7.20;2.50;;;;;;;;;;4935809;29;20442;-68
2022/06/17 01:48:50;;;;;;;2.37;2.27;;;;;;;;;;4936094;29;20866;-75
2022/06/17 01:51:16;;;;;;;2.43;2.23;;;;;;;;;;4936122;29;20416;-75
2022/06/17 01:53:45;;;;;;;2.63;2.63;;;;;;;;;;4938806;29;20462;-74
2022/06/17 01:56:12;;;;;;;3.53;3.33;;;;;;;;;;4939804;29;20405;-65
2022/06/17 01:58:59;;;;;;;3.57;3.27;;;;;;;;;;4939676;29;20499;-64
2022/06/17 02:01:28;;;;;;;3.37;3.27;;;;;;;;;;4939699;29;20819;-64
2022/06/17 02:04:00;;;;;;;4.47;3.13;;;;;;;;;;4939771;29;20470;-63
2022/06/17 02:06:49;;;;;;;2.97;2.87;;;;;;;;;;4939824;29;20423;-63
2022/06/17 02:09:15;;;;;;;4.87;2.93;;;;;;;;;;4939789;29;20882;-63
2022/06/17 02:11:41;;;;;;;3.60;3.40;;;;;;;;;;4939477;29;20439;-74
2022/06/17 02:14:08;;;;;;;3.50;2.80;;;;;;;;;;4922337;29;20426;-73
2022/06/17 02:16:36;;;;;;;7.93;3.10;;;;;;;;;;4939465;29;20413;-74
2022/06/17 02:19:03;;;;;;;3.20;3.10;;;;;;;;;;4939617;29;20406;-71
2022/06/17 02:21:35;;;;;;;3.33;3.03;;;;;;;;;;4939289;29;20410;-75
2022/06/17 02:24:03;;;;;;;3.37;3.20;;;;;;;;;;4939233;29;20467;-69
2022/06/17 02:26:30;;;;;;;3.80;3.50;;;;;;;;;;4939202;29;20763;-70
2022/06/17 02:28:56;;;;;;;3.00;2.90;;;;;;;;;;4939154;29;20413;-76
2022/06/17 02:31:22;;;;;;;8.03;3.60;;;;;;;;;;4921969;29;20518;-76
2022/06/17 02:33:51;;;;;;;2.83;2.73;;;;;;;;;;4938916;29;20901;-74
2022/06/17 02:36:22;;;;;;;3.23;2.97;;;;;;;;;;4939222;29;20406;-75
2022/06/17 02:38:48;;;;;;;7.53;3.60;;;;;;;;;;4939250;29;20418;-75
2022/06/17 02:41:19;;;;;;;3.80;3.50;;;;;;;;;;4938896;29;20401;-74
2022/06/17 02:43:46;;;;;;;4.10;3.23;;;;;;;;;;4938827;29;20965;-75
2022/06/17 02:46:18;;;;;;;3.40;3.17;;;;;;;;;;4939141;29;20410;-74
2022/06/17 02:48:55;;;;;;;3.40;3.10;;;;;;;;;;4938833;29;20412;-75
2022/06/17 02:51:22;;;;;;;3.77;3.00;;;;;;;;;;4938771;29;20405;-75
2022/06/17 02:53:47;;;;;;;2.80;2.63;;;;;;;;;;4938705;29;20756;-74
2022/06/17 02:56:16;;;;;;;3.00;2.90;;;;;;;;;;4938767;29;20413;-76
2022/06/17 02:58:48;;;;;;;3.20;3.10;;;;;;;;;;4938668;29;20417;-74
2022/06/17 03:01:19;;;;;;;3.50;3.40;;;;;;;;;;4938662;29;20837;-73
2022/06/17 03:03:45;;;;;;;4.10;4.00;;;;;;;;;;4938377;29;20586;-74
2022/06/17 03:06:19;;;;;;;5.80;4.30;;;;;;;;;;4938494;29;20933;-74
2022/06/17 03:08:48;;;;;;;4.87;4.60;;;;;;;;;;4938422;29;20399;-63
2022/06/17 03:11:14;;;;;;;5.33;4.83;;;;;;;;;;4938303;29;20598;-63
2022/06/17 03:13:47;;;;;;;6.07;5.77;;;;;;;;;;4938400;29;20397;-63
2022/06/17 03:16:14;;;;;;;4.70;4.50;;;;;;;;;;4938556;29;20420;-62
2022/06/17 03:18:41;;;;;;;5.90;5.40;;;;;;;;;;4938244;29;20413;-75
2022/06/17 03:21:07;;;;;;;5.40;5.00;;;;;;;;;;4938468;29;20420;-76
2022/06/17 03:23:36;;;;;;;4.83;4.63;;;;;;;;;;4938119;29;20525;-76
2022/06/17 03:26:04;;;;;;;5.40;5.00;;;;;;;;;;4938406;29;20499;-75
2022/06/17 03:28:33;;;;;;;4.23;3.83;;;;;;;;;;4938162;29;20903;-74
2022/06/17 03:31:02;;;;;;;5.27;3.97;;;;;;;;;;4938312;29;20412;-75
2022/06/17 03:33:36;;;;;;;6.57;2.80;;;;;;;;;;4937803;29;20467;-76
2022/06/17 03:36:08;;;;;;;3.50;3.30;;;;;;;;;;4937990;29;20505;-76
2022/06/17 03:38:46;;;;;;;3.67;3.40;;;;;;;;;;4937829;29;20886;-76
2022/06/17 03:41:15;;;;;;;3.87;3.57;;;;;;;;;;4937866;29;20415;-75
2022/06/17 03:43:45;;;;;;;3.23;2.93;;;;;;;;;;4937807;29;20958;-75
2022/06/17 03:46:12;;;;;;;4.13;3.80;;;;;;;;;;4938035;29;20416;-74
2022/06/17 03:48:45;;;;;;;3.70;2.90;;;;;;;;;;4937702;29;20428;-65
2022/06/17 03:51:14;;;;;;;3.17;3.07;;;;;;;;;;4937901;29;20403;-63
2022/06/17 03:53:41;;;;;;;3.90;3.20;;;;;;;;;;4937841;29;20439;-62
2022/06/17 03:56:13;;;;;;;3.50;3.30;;;;;;;;;;4937810;29;20405;-63
2022/06/17 03:58:40;;;;;;;3.20;3.00;;;;;;;;;;4937504;29;20443;-62
2022/06/17 04:01:06;;;;;;;4.40;2.93;;;;;;;;;;4937405;29;20400;-62
2022/06/17 04:03:34;;;;;;;3.20;3.00;;;;;;;;;;4937399;29;20547;-62
2022/06/17 04:06:05;;;;;;;3.30;3.10;;;;;;;;;;4937438;29;20421;-75
2022/06/17 04:08:32;;;;;;;4.20;3.33;;;;;;;;;;4937460;29;20410;-76
2022/06/17 04:10:58;;;;;;;3.40;3.30;;;;;;;;;;4937254;29;20444;-75
2022/06/17 04:13:26;;;;;;;3.50;3.40;;;;;;;;;;4937236;29;20501;-74
2022/06/17 04:16:05;;;;;;;3.37;3.13;;;;;;;;;;4936669;29;20892;-76
2022/06/17 04:18:35;;;;;;;4.00;3.70;;;;;;;;;;4937163;29;20408;-73
2022/06/17 04:21:02;;;;;;;3.90;3.70;;;;;;;;;;4937101;29;20493;-75
2022/06/17 04:23:31;;;;;;;3.67;3.37;;;;;;;;;;4937271;29;20531;-76
2022/06/17 04:25:59;;;;;;;3.13;3.00;;;;;;;;;;4937287;29;20508;-75
2022/06/17 04:28:27;;;;;;;3.10;3.10;;;;;;;;;;4937188;29;20417;-68
2022/06/17 04:30:55;;;;;;;3.43;3.33;;;;;;;;;;4937159;29;20415;-66
2022/06/17 04:33:27;;;;;;;3.33;3.23;;;;;;;;;;4936932;29;21041;-75
2022/06/17 04:35:55;;;;;;;3.17;3.07;;;;;;;;;;4936955;29;20436;-63
2022/06/17 04:38:21;;;;;;;3.33;3.13;;;;;;;;;;4936870;29;20768;-66
2022/06/17 04:40:49;;;;;;;4.17;4.00;;;;;;;;;;4936888;29;20405;-67
2022/06/17 04:43:21;;;;;;;3.47;3.30;;;;;;;;;;4936697;29;20496;-70
2022/06/17 04:45:59;;;;;;;10.17;3.37;;;;;;;;;;4936955;29;20894;-64
2022/06/17 04:48:25;;;;;;;4.10;3.67;;;;;;;;;;4936601;29;20911;-70
2022/06/17 04:50:51;;;;;;;3.60;3.30;;;;;;;;;;4936699;29;20492;-65
2022/06/17 04:53:18;;;;;;;7.30;3.00;;;;;;;;;;4936637;29;20457;-69
2022/06/17 04:55:45;;;;;;;3.47;3.17;;;;;;;;;;4936856;29;20803;-65
2022/06/17 04:58:12;;;;;;;3.40;3.20;;;;;;;;;;4936710;29;20399;-63
2022/06/17 05:00:38;;;;;;;2.77;2.70;;;;;;;;;;4936507;29;20518;-66
2022/06/17 05:03:04;;;;;;;3.40;3.23;;;;;;;;;;4936403;29;20549;-64
2022/06/17 05:05:37;;;;;;;2.70;2.50;;;;;;;;;;4936527;29;20508;-65
2022/06/17 05:08:06;;;;;;;3.07;2.90;;;;;;;;;;4936455;29;20410;-64
2022/06/17 05:10:38;;;;;;;2.90;2.70;;;;;;;;;;4936359;29;20903;-65
2022/06/17 05:13:10;;;;;;;6.80;2.60;;;;;;;;;;4936427;29;20410;-69
2022/06/17 05:15:37;;;;;;;2.70;2.50;;;;;;;;;;4936431;29;20419;-64
2022/06/17 05:18:03;;;;;;;3.33;3.13;;;;;;;;;;4936317;29;20409;-64
2022/06/17 05:20:29;;;;;;;3.17;2.97;;;;;;;;;;4936362;29;20455;-75
2022/06/17 05:23:00;;;;;;;2.60;2.40;;;;;;;;;;4936277;29;20415;-76
2022/06/17 05:25:28;;;;;;;2.90;2.63;;;;;;;;;;4936424;29;20438;-75
2022/06/17 05:27:55;;;;;;;2.30;2.30;;;;;;;;;;4937870;29;20413;-76
2022/06/17 05:30:21;;;;;;;5.70;3.40;;;;;;;;;;4940161;29;20893;-76
2022/06/17 05:32:48;;;;;;;5.23;2.57;;;;;;;;;;4939949;29;20466;-63
2022/06/17 05:35:14;;;;;;;2.07;2.07;;;;;;;;;;4940460;29;20448;-65
2022/06/17 05:37:40;;;;;;;4.53;2.20;;;;;;;;;;4940148;29;20411;-66
2022/06/17 05:40:08;;;;;;;2.40;2.30;;;;;;;;;;4940184;29;20420;-63
2022/06/17 05:42:34;;;;;;;3.17;2.87;;;;;;;;;;4940032;29;20429;-74
2022/06/17 05:45:00;;;;;;;2.87;2.63;;;;;;;;;;4939893;29;20467;-62
2022/06/17 05:47:26;;;;;;;2.20;2.10;;;;;;;;;;4940118;29;20415;-64
2022/06/17 05:49:52;;;;;;;3.33;2.30;;;;;;;;;;4939856;29;20486;-63
2022/06/17 05:52:19;;;;;;;5.50;2.00;;;;;;;;;;4939801;29;20435;-63
2022/06/17 05:54:45;;;;;;;2.73;2.17;;;;;;;;;;4940021;29;20814;-63
2022/06/17 05:57:11;;;;;;;5.00;4.60;;;;;;;;;;4940121;29;20413;-62
2022/06/17 05:59:37;;;;;;;3.07;2.73;;;;;;;;;;4939669;29;20515;-71
2022/06/17 06:02:04;;;;;;;5.03;3.33;;;;;;;;;;4939851;29;20404;-72
2022/06/17 06:04:31;;;;;;;2.57;2.37;;;;;;;;;;4939617;29;20495;-72
2022/06/17 06:06:57;;;;;;;6.63;3.50;;;;;;;;;;4939622;29;20401;-71
2022/06/17 06:09:25;;;;;;;3.20;2.17;;;;;;;;;;4939647;29;20450;-71
2022/06/17 06:11:51;;;;;;;33.50;27.33;;;;;;;;;;4939600;29;20407;-64
2022/06/17 06:14:17;;;;;;;43.00;32.70;;;;;;;;;;4939371;29;20412;-71
2022/06/17 06:16:43;;;;;;;6.07;5.60;;;;;;;;;;4939392;29;20415;-72
2022/06/17 06:19:09;;;;;;;3.37;2.73;;;;;;;;;;4939336;29;20458;-71
2022/06/17 06:21:35;;;;;;;7.50;7.10;;;;;;;;;;4939351;29;20402;-70
2022/06/17 06:24:01;;;;;;;3.40;3.10;;;;;;;;;;4939203;29;20476;-71
2022/06/17 06:26:27;;;;;;;4.83;2.70;;;;;;;;;;4939475;29;20409;-72
2022/06/17 06:28:53;;;;;;;2.53;2.33;;;;;;;;;;4939439;29;20408;-74
2022/06/17 06:31:22;;;;;;;3.47;2.20;;;;;;;;;;4939108;29;20485;-72
2022/06/17 06:33:48;;;;;;;3.37;2.50;;;;;;;;;;4938952;29;20465;-78
2022/06/17 06:36:14;;;;;;;2.37;2.37;;;;;;;;;;4938993;29;20495;-69
2022/06/17 06:38:40;;;;;;;4.73;2.23;;;;;;;;;;4938791;29;20765;-66
2022/06/17 06:41:06;;;;;;;2.10;2.00;;;;;;;;;;4938090;29;20506;-64
2022/06/17 06:43:34;;;;;;;3.43;2.07;;;;;;;;;;4937938;29;20469;-73
2022/06/17 06:46:04;;;;;;;2.53;2.30;;;;;;;;;;4938305;29;20842;-67
2022/06/17 06:48:30;;;;;;;2.30;2.20;;;;;;;;;;4938240;29;20405;-72
2022/06/17 06:50:56;;;;;;;2.23;2.23;;;;;;;;;;4938762;29;20420;-72
2022/06/17 06:53:22;;;;;;;1.87;1.77;;;;;;;;;;4938737;29;20413;-67
2022/06/17 06:55:48;;;;;;;2.27;2.10;;;;;;;;;;4938717;29;20417;-71
2022/06/17 06:58:19;;;;;;;2.57;2.43;;;;;;;;;;4938601;29;20488;-70
2022/06/17 07:00:46;;;;;;;1.73;1.63;;;;;;;;;;4938583;29;20493;-71
2022/06/17 07:03:12;;;;;;;1.90;1.80;;;;;;;;;;4938427;29;20466;-71
2022/06/17 07:05:40;;;;;;;2.10;2.00;;;;;;;;;;4938566;29;20450;-70
2022/06/17 07:08:07;;;;;;;1.93;1.90;;;;;;;;;;4938502;29;20409;-65
2022/06/17 07:10:34;;;;;;;2.03;1.93;;;;;;;;;;4938461;29;20409;-69
2022/06/17 07:13:01;;;;;;;2.20;2.07;;;;;;;;;;4938446;29;20401;-70
2022/06/17 07:15:27;;;;;;;2.37;2.17;;;;;;;;;;4938634;29;20503;-70
2022/06/17 07:17:59;;;;;;;4.60;2.00;;;;;;;;;;4938289;29;20402;-71
2022/06/17 07:20:26;;;;;;;2.00;2.00;;;;;;;;;;4938303;29;20412;-68
2022/06/17 07:22:52;;;;;;;2.63;2.53;;;;;;;;;;4938297;29;20410;-71
2022/06/17 07:25:19;;;;;;;2.10;2.03;;;;;;;;;;4937979;29;20486;-66
2022/06/17 07:27:45;;;;;;;1.87;1.87;;;;;;;;;;4938452;29;20823;-66
2022/06/17 07:30:15;;;;;;;2.70;2.50;;;;;;;;;;4938138;29;20468;-64
2022/06/17 07:32:41;;;;;;;4.83;2.33;;;;;;;;;;4937212;29;20466;-67
2022/06/17 07:35:07;;;;;;;2.57;2.10;;;;;;;;;;4936988;29;20423;-65
2022/06/17 07:40:17;;;;;;;8.00;2.67;;;;;;;;;;4937188;29;20547;-62
2022/06/17 07:42:44;;;;;;;2.27;2.27;;;;;;;;;;4937035;29;20444;-62
2022/06/17 07:45:12;;;;;;;4.50;4.30;;;;;;;;;;4937042;29;20477;-67
2022/06/17 07:47:40;;;;;;;2.97;2.87;;;;;;;;;;4937051;29;20471;-61
2022/06/17 07:50:07;;;;;;;2.27;2.27;;;;;;;;;;4935868;29;20408;-64
2022/06/17 07:52:33;;;;;;;3.97;3.67;;;;;;;;;;4936619;29;20408;-66
2022/06/17 07:54:59;;;;;;;2.30;2.30;;;;;;;;;;4936854;29;20406;-62
2022/06/17 07:57:25;;;;;;;3.60;2.50;;;;;;;;;;4936519;29;20825;-63
2022/06/17 07:59:51;;;;;;;2.43;2.43;;;;;;;;;;4936567;29;20410;-62
2022/06/17 08:02:17;;;;;;;2.47;2.37;;;;;;;;;;4937501;29;20421;-63
2022/06/17 08:04:43;;;;;;;2.53;2.43;;;;;;;;;;4937287;29;20613;-68
2022/06/17 08:07:10;;;;;;;2.40;2.30;;;;;;;;;;4937396;29;20411;-74
2022/06/17 08:09:36;;;;;;;2.63;2.47;;;;;;;;;;4937328;29;20476;-75
2022/06/17 08:12:07;;;;;;;2.60;2.50;;;;;;;;;;4920223;29;20453;-72
2022/06/17 08:14:33;;;;;;;2.50;2.50;;;;;;;;;;4937260;29;20412;-66
2022/06/17 08:16:58;;;;;;;2.93;2.73;;;;;;;;;;4937045;29;20414;-66
2022/06/17 08:19:25;;;;;;;5.10;3.00;;;;;;;;;;4919860;29;20441;-66
2022/06/17 08:21:51;;;;;;;4.97;3.03;;;;;;;;;;4937015;29;20890;-67
2022/06/17 08:24:16;;;;;;;2.17;2.07;;;;;;;;;;4936931;29;20470;-69
2022/06/17 08:26:42;;;;;;;3.23;2.60;;;;;;;;;;4937015;29;20953;-64
2022/06/17 08:29:08;;;;;;;4.73;2.50;;;;;;;;;;4936735;29;20419;-65
2022/06/17 08:31:34;;;;;;;3.33;2.90;;;;;;;;;;4919860;29;20426;-70
2022/06/17 08:34:00;;;;;;;2.37;2.37;;;;;;;;;;4936669;29;20431;-69
2022/06/17 08:36:28;;;;;;;2.83;2.73;;;;;;;;;;4936835;29;20432;-71
2022/06/17 08:38:57;;;;;;;9.63;8.93;;;;;;;;;;4936886;29;20911;-65
2022/06/17 08:41:25;;;;;;;2.63;2.60;;;;;;;;;;4936753;29;20440;-68
2022/06/17 08:44:02;;;;;;;3.07;2.70;;;;;;;;;;4936572;29;20951;-64
2022/06/17 08:46:47;;;;;;;4.90;2.97;;;;;;;;;;4936655;29;20425;-66
2022/06/17 08:49:25;;;;;;;3.43;2.70;;;;;;;;;;4936863;29;20445;-66
2022/06/17 08:52:09;;;;;;;3.37;3.17;;;;;;;;;;4936654;29;20499;-70
2022/06/17 08:54:52;;;;;;;3.33;3.03;;;;;;;;;;4936366;29;20481;-69
2022/06/17 08:57:21;;;;;;;3.10;3.00;;;;;;;;;;4935838;29;20424;-64
2022/06/17 08:59:52;;;;;;;3.00;2.77;;;;;;;;;;4936516;29;20403;-78
2022/06/17 09:02:33;;;;;;;2.77;2.63;;;;;;;;;;4938454;29;20464;-79
2022/06/17 09:05:02;;;;;;;2.73;2.63;;;;;;;;;;4938484;29;20504;-69
2022/06/17 09:07:31;;;;;;;3.03;2.83;;;;;;;;;;4937278;29;20402;-71
2022/06/17 09:09:57;;;;;;;3.17;2.97;;;;;;;;;;4936893;29;20872;-66
2022/06/17 09:12:26;;;;;;;2.87;2.60;;;;;;;;;;4936461;29;20419;-68
2022/06/17 09:14:52;;;;;;;2.83;2.73;;;;;;;;;;4936514;29;20429;-67
2022/06/17 09:17:24;;;;;;;3.37;3.17;;;;;;;;;;4936513;29;20401;-70
2022/06/17 09:19:53;;;;;;;2.80;2.70;;;;;;;;;;4936959;29;20440;-76
2022/06/17 09:22:19;;;;;;;5.23;2.97;;;;;;;;;;4937168;29;20399;-78
2022/06/17 09:24:45;;;;;;;5.37;5.10;;;;;;;;;;4940710;29;20481;-77
2022/06/17 09:27:14;;;;;;;3.80;2.47;;;;;;;;;;4939737;29;20926;-66
2022/06/17 09:29:46;;;;;;;3.10;2.90;;;;;;;;;;4936908;29;20412;-63
2022/06/17 09:32:18;;;;;;;2.50;2.40;;;;;;;;;;4940132;29;20461;-64
2022/06/17 09:35:02;;;;;;;2.73;2.60;;;;;;;;;;4937434;29;20404;-63
2022/06/17 09:37:32;;;;;;;3.07;2.80;;;;;;;;;;4938048;29;20411;-63
2022/06/17 09:40:06;;;;;;;3.17;3.00;;;;;;;;;;4936550;29;20843;-63
2022/06/17 09:42:36;;;;;;;4.47;2.60;;;;;;;;;;4936272;29;20414;-66
2022/06/17 09:45:13;;;;;;;2.07;2.07;;;;;;;;;;4936128;29;20500;-63
2022/06/17 09:47:47;;;;;;;2.73;2.53;;;;;;;;;;4936325;29;20495;-63
2022/06/17 09:50:16;;;;;;;2.60;2.40;;;;;;;;;;4936241;29;20423;-63
2022/06/17 09:52:46;;;;;;;4.00;2.37;;;;;;;;;;4936210;29;20404;-63
2022/06/17 09:55:16;;;;;;;3.40;3.10;;;;;;;;;;4919085;29;20499;-68
2022/06/17 09:57:42;;;;;;;2.67;2.40;;;;;;;;;;4936174;29;20460;-70
2022/06/17 10:00:29;;;;;;;2.77;2.57;;;;;;;;;;4936287;29;20473;-63
2022/06/17 10:03:15;;;;;;;2.97;2.63;;;;;;;;;;4934785;29;20455;-70
2022/06/17 10:05:47;;;;;;;3.20;2.30;;;;;;;;;;4935192;29;20447;-66
2022/06/17 10:08:16;;;;;;;2.20;2.10;;;;;;;;;;4935288;29;20403;-65
2022/06/17 10:10:47;;;;;;;4.67;2.60;;;;;;;;;;4935179;29;20404;-62
2022/06/17 10:13:13;;;;;;;2.33;2.27;;;;;;;;;;4935687;29;20408;-73
2022/06/17 10:18:53;;;;;;;2.47;2.37;;;;;;;;;;4939402;29;20175;-63
2022/06/17 10:21:28;;;;;;;6.10;2.57;;;;;;;;;;4939729;29;20423;-63
2022/06/17 10:24:12;;;;;;;4.20;2.30;;;;;;;;;;4938529;29;20470;-66
2022/06/17 10:26:41;;;;;;;2.63;2.53;;;;;;;;;;4938372;29;20859;-63
2022/06/17 10:29:26;;;;;;;4.20;2.23;;;;;;;;;;4939167;29;20487;-64
2022/06/17 10:31:52;;;;;;;2.63;2.53;;;;;;;;;;4939329;29;20416;-63
2022/06/17 10:34:20;;;;;;;2.57;2.47;;;;;;;;;;4939144;29;20439;-63
2022/06/17 10:36:47;;;;;;;2.67;2.30;;;;;;;;;;4939287;29;20907;-63
2022/06/17 10:39:15;;;;;;;2.57;2.47;;;;;;;;;;4939050;29;20472;-65
2022/06/17 10:41:41;;;;;;;2.33;2.23;;;;;;;;;;4939248;29;20444;-63
2022/06/17 10:44:11;;;;;;;2.30;2.30;;;;;;;;;;4938424;29;20511;-65
2022/06/17 10:46:39;;;;;;;2.70;2.60;;;;;;;;;;4938456;29;20441;-67
2022/06/17 10:49:19;;;;;;;2.67;2.53;;;;;;;;;;4938292;29;20401;-78
2022/06/17 10:51:46;;;;;;;2.27;2.17;;;;;;;;;;4939239;29;20404;-69
2022/06/17 10:54:16;;;;;;;2.17;2.07;;;;;;;;;;4938764;29;20826;-74
2022/06/17 10:56:44;;;;;;;2.40;2.10;;;;;;;;;;4938686;29;20769;-65
2022/06/17 10:59:13;;;;;;;2.30;2.10;;;;;;;;;;4937610;29;20423;-69
2022/06/17 11:01:48;;;;;;;1.73;1.73;;;;;;;;;;4937665;29;20753;-68
2022/06/17 11:04:18;;;;;;;6.43;1.90;;;;;;;;;;4938633;29;20515;-70
2022/06/17 11:06:50;;;;;;;2.43;2.30;;;;;;;;;;4938493;29;20413;-79
2022/06/17 11:09:20;;;;;;;4.07;2.17;;;;;;;;;;4938946;29;20484;-74
2022/06/17 11:12:03;;;;;;;2.20;2.10;;;;;;;;;;4937627;29;20405;-72
2022/06/17 11:14:47;;;;;;;5.80;5.27;;;;;;;;;;4938425;29;20417;-68
2022/06/17 11:17:22;;;;;;;7.13;3.00;;;;;;;;;;4938462;29;20900;-69
2022/06/17 11:19:50;;;;;;;7.00;2.67;;;;;;;;;;4938357;29;20411;-72
2022/06/17 11:22:17;;;;;;;2.50;2.20;;;;;;;;;;4938298;29;20756;-66
2022/06/17 11:24:49;;;;;;;2.07;1.97;;;;;;;;;;4938353;29;20523;-70
2022/06/17 11:27:14;;;;;;;2.23;2.10;;;;;;;;;;4940453;29;20468;-69
2022/06/17 11:29:42;;;;;;;3.13;2.20;;;;;;;;;;4938260;29;20495;-65
2022/06/17 11:32:20;;;;;;;2.20;2.10;;;;;;;;;;4922053;29;20464;-75
2022/06/17 11:34:48;;;;;;;2.17;1.97;;;;;;;;;;4938057;29;20934;-70
2022/06/17 11:37:21;;;;;;;2.33;1.50;;;;;;;;;;4938053;29;20967;-65
2022/06/17 11:39:48;;;;;;;2.10;2.00;;;;;;;;;;4937969;29;20428;-71
2022/06/17 11:42:17;;;;;;;4.33;2.27;;;;;;;;;;4938175;29;20408;-69
2022/06/17 11:44:56;;;;;;;2.13;2.03;;;;;;;;;;4937807;29;20515;-64
2022/06/17 11:47:24;;;;;;;2.50;2.30;;;;;;;;;;4937775;29;20551;-67
2022/06/17 11:49:51;;;;;;;2.30;2.07;;;;;;;;;;4937990;29;20431;-68
2022/06/17 11:52:25;;;;;;;2.10;1.90;;;;;;;;;;4937882;29;20432;-67
2022/06/17 11:54:52;;;;;;;2.30;2.20;;;;;;;;;;4937649;29;20401;-64
2022/06/17 11:57:21;;;;;;;1.73;1.73;;;;;;;;;;4937597;29;20405;-67
2022/06/17 11:59:49;;;;;;;5.90;1.77;;;;;;;;;;4937545;29;20408;-65
2022/06/17 12:02:16;;;;;;;1.70;1.60;;;;;;;;;;4936771;29;20404;-63
2022/06/17 12:04:44;;;;;;;2.10;2.00;;;;;;;;;;4936502;29;20530;-64
2022/06/17 12:07:30;;;;;;;4.73;1.93;;;;;;;;;;4936633;29;20537;-61
2022/06/17 12:10:14;;;;;;;1.67;1.57;;;;;;;;;;4936517;29;20881;-64
2022/06/17 12:12:41;;;;;;;2.40;1.83;;;;;;;;;;4937446;29;20569;-63
2022/06/17 12:15:26;;;;;;;7.13;6.63;;;;;;;;;;4937272;29;20408;-63
2022/06/17 12:17:56;;;;;;;1.90;1.80;;;;;;;;;;4937217;29;20401;-65
2022/06/17 12:20:24;;;;;;;2.53;2.13;;;;;;;;;;4936411;29;20404;-62
2022/06/17 12:22:59;;;;;;;5.03;2.17;;;;;;;;;;4936269;29;20868;-63
2022/06/17 12:25:27;;;;;;;5.23;1.80;;;;;;;;;;4936532;29;20562;-63
2022/06/17 12:28:02;;;;;;;1.90;1.73;;;;;;;;;;4937356;29;20491;-65
2022/06/17 12:30:50;;;;;;;1.70;1.70;;;;;;;;;;4937072;29;20448;-64
2022/06/17 12:33:21;;;;;;;1.90;1.80;;;;;;;;;;4935603;29;20559;-64
2022/06/17 12:35:51;;;;;;;1.70;1.70;;;;;;;;;;4935852;29;20401;-65
2022/06/17 12:38:52;;;;;;;6.10;5.77;;;;;;;;;;4936838;29;20408;-64
2022/06/17 12:41:34;;;;;;;2.77;2.57;;;;;;;;;;4878172;29;20448;-66
2022/06/17 12:44:10;;;;;;;1.60;1.50;;;;;;;;;;4931558;29;20502;-70
2022/06/17 12:46:56;;;;;;;2.93;1.90;;;;;;;;;;4937039;29;20426;-63
2022/06/17 12:55:27;;;;;;;3.17;1.90;;;;;;;;;;4936742;29;20495;-68
2022/06/17 12:58:05;;;;;;;2.17;2.10;;;;;;;;;;4936762;29;20409;-64
2022/06/17 13:00:31;;;;;;;1.90;1.90;;;;;;;;;;4935613;29;20401;-66
2022/06/17 13:03:13;;;;;;;5.40;1.83;;;;;;;;;;4935873;29;20963;-70
2022/06/17 13:05:43;;;;;;;7.20;2.63;;;;;;;;;;4935706;29;20188;-72
2022/06/17 13:08:12;;;;;;;2.07;2.03;;;;;;;;;;4935584;29;20413;-77
2022/06/17 13:10:49;;;;;;;5.37;2.23;;;;;;;;;;4935795;29;20541;-74
2022/06/17 13:13:27;;;;;;;1.80;1.80;;;;;;;;;;4935290;29;20408;-66
2022/06/17 13:16:13;;;;;;;3.67;1.80;;;;;;;;;;4935630;29;20848;-69
2022/06/17 13:18:54;;;;;;;2.10;1.90;;;;;;;;;;4908653;29;20801;-73
2022/06/17 13:21:28;;;;;;;2.63;2.43;;;;;;;;;;4935485;29;20452;-71
2022/06/17 13:23:54;;;;;;;1.90;1.87;;;;;;;;;;4936403;29;20551;-76
2022/06/17 13:26:22;;;;;;;4.13;2.00;;;;;;;;;;4936272;29;20511;-74
2022/06/17 13:28:48;;;;;;;2.10;2.10;;;;;;;;;;4936465;29;20175;-70
2022/06/17 13:31:19;;;;;;;4.10;2.17;;;;;;;;;;4936144;29;20444;-68
2022/06/17 13:34:11;;;;;;;2.83;2.23;;;;;;;;;;4936146;29;20653;-70
2022/06/17 13:36:45;;;;;;;2.07;1.97;;;;;;;;;;4913078;29;20428;-65
2022/06/17 13:39:14;;;;;;;2.13;1.90;;;;;;;;;;4935307;29;20424;-63
2022/06/17 13:41:43;;;;;;;4.43;2.20;;;;;;;;;;4935231;29;20873;-65
2022/06/17 13:44:08;;;;;;;2.13;2.13;;;;;;;;;;4935972;29;20551;-64
2022/06/17 13:46:37;;;;;;;3.93;2.03;;;;;;;;;;4936096;29;20509;-69
2022/06/17 13:49:21;;;;;;;4.40;2.37;;;;;;;;;;4937836;29;20177;-64
2022/06/17 13:52:06;;;;;;;2.40;2.20;;;;;;;;;;4940253;29;20853;-64
2022/06/17 13:54:51;;;;;;;1.90;1.90;;;;;;;;;;4939910;29;20407;-65
2022/06/17 13:57:26;;;;;;;2.53;2.33;;;;;;;;;;4939853;29;20435;-69
2022/06/17 13:59:54;;;;;;;2.30;2.20;;;;;;;;;;4939269;29;20405;-66
2022/06/17 14:02:20;;;;;;;2.80;2.70;;;;;;;;;;4939592;29;20405;-65
2022/06/17 14:05:01;;;;;;;2.40;2.03;;;;;;;;;;4939538;29;20472;-66
2022/06/17 14:07:45;;;;;;;3.50;1.83;;;;;;;;;;4939598;29;20181;-65
2022/06/17 14:10:37;;;;;;;2.73;1.80;;;;;;;;;;4939590;29;20887;-72
2022/06/17 14:13:21;;;;;;;1.73;1.63;;;;;;;;;;4901224;29;20475;-65
2022/06/17 14:15:50;;;;;;;2.20;1.77;;;;;;;;;;4939485;29;20552;-66
2022/06/17 14:18:20;;;;;;;1.90;1.90;;;;;;;;;;4939461;29;20404;-68
2022/06/17 14:20:55;;;;;;;4.57;1.93;;;;;;;;;;4939406;29;20426;-67
2022/06/17 14:23:28;;;;;;;2.00;1.90;;;;;;;;;;4939287;29;20404;-64
2022/06/17 14:25:57;;;;;;;4.23;1.77;;;;;;;;;;4939526;29;20416;-66
2022/06/17 14:28:42;;;;;;;1.70;1.70;;;;;;;;;;4939272;29;20408;-67
2022/06/17 14:31:13;;;;;;;1.63;1.63;;;;;;;;;;4939443;29;20421;-66
2022/06/17 14:33:41;;;;;;;1.67;1.57;;;;;;;;;;4939009;29;20477;-64
2022/06/17 14:36:15;;;;;;;5.40;1.70;;;;;;;;;;4938239;29;20405;-66
2022/06/17 14:38:44;;;;;;;3.50;1.70;;;;;;;;;;4939465;29;20413;-64
2022/06/17 14:44:17;;;;;;;1.87;1.87;;;;;;;;;;4938720;29;20459;-68
2022/06/17 14:47:02;;;;;;;1.63;1.53;;;;;;;;;;4938847;29;20544;-66
2022/06/17 14:49:42;;;;;;;2.30;1.67;;;;;;;;;;4938926;29;20556;-67
2022/06/17 14:52:21;;;;;;;1.60;1.60;;;;;;;;;;4938759;29;20901;-69
2022/06/17 14:54:57;;;;;;;4.40;1.73;;;;;;;;;;4938932;29;20471;-66
2022/06/17 14:57:24;;;;;;;1.80;1.70;;;;;;;;;;4938705;29;20423;-66
2022/06/17 14:59:50;;;;;;;1.33;1.33;;;;;;;;;;4938383;29;20409;-71
2022/06/17 15:02:21;;;;;;;4.13;1.57;;;;;;;;;;4938365;29;20895;-68
2022/06/17 15:04:47;;;;;;;2.93;2.00;;;;;;;;;;4938634;29;20476;-65
2022/06/17 15:07:27;;;;;;;2.57;1.90;;;;;;;;;;4938499;29;20412;-66
2022/06/17 15:10:03;;;;;;;2.10;1.67;;;;;;;;;;4938433;29;20404;-66
2022/06/17 15:12:32;;;;;;;3.13;1.80;;;;;;;;;;4938706;29;20412;-66
2022/06/17 15:15:04;;;;;;;1.60;1.47;;;;;;;;;;4938467;29;20405;-68
2022/06/17 15:17:37;;;;;;;2.00;1.60;;;;;;;;;;4938383;29;20413;-69
2022/06/17 15:20:05;;;;;;;1.63;1.63;;;;;;;;;;4938578;29;20405;-67